Terminal Aerodrome Forecast
Issued by NWS Detroit/Pontiac, MI

Home | Current Version | Previous Version | Text Only | Print | Product List | Glossary On
Versions: 1 2 3 4 5 6 7 8 9 10 11 12 13 14 15 16 17 18 19
000
FTUS43 KDTX 301122
TAFFNT
TAF
KFNT 301122Z 3012/3112 32015G25KT 6SM -SHSN BKN035
     FM301400 32014G22KT P6SM SCT040
     FM302000 30008KT P6SM SCT040 BKN100
     FM310000 VRB03KT P6SM SCT040 BKN080
     FM310600 20004KT P6SM OVC020=

USA.gov is the U.S. government's official web portal to all federal, state and local government web resources and services.